sensor_id;sensor_type;location;lat;lon;timestamp;P1;durP1;ratioP1;P2;durP2;ratioP2
9128;SDS011;4599;50.906;6.786;2024-02-21T00:02:38;17.23;;;4.80;;
9128;SDS011;4599;50.906;6.786;2024-02-21T00:06:39;12.30;;;4.87;;
9128;SDS011;4599;50.906;6.786;2024-02-21T00:10:41;16.50;;;5.77;;
9128;SDS011;4599;50.906;6.786;2024-02-21T00:14:43;13.13;;;4.63;;
9128;SDS011;4599;50.906;6.786;2024-02-21T00:18:46;13.97;;;4.63;;
9128;SDS011;4599;50.906;6.786;2024-02-21T00:22:48;11.73;;;4.73;;
9128;SDS011;4599;50.906;6.786;2024-02-21T00:26:50;15.93;;;4.77;;
9128;SDS011;4599;50.906;6.786;2024-02-21T00:30:52;13.63;;;4.50;;
9128;SDS011;4599;50.906;6.786;2024-02-21T00:34:55;15.80;;;5.07;;
9128;SDS011;4599;50.906;6.786;2024-02-21T00:38:57;14.50;;;4.83;;
9128;SDS011;4599;50.906;6.786;2024-02-21T00:42:58;11.67;;;4.60;;
9128;SDS011;4599;50.906;6.786;2024-02-21T00:47:00;10.90;;;5.30;;
9128;SDS011;4599;50.906;6.786;2024-02-21T00:51:03;14.67;;;5.30;;
9128;SDS011;4599;50.906;6.786;2024-02-21T00:55:06;10.47;;;4.43;;
9128;SDS011;4599;50.906;6.786;2024-02-21T00:59:08;16.97;;;5.20;;
9128;SDS011;4599;50.906;6.786;2024-02-21T01:03:10;16.83;;;5.20;;
9128;SDS011;4599;50.906;6.786;2024-02-21T01:07:13;12.00;;;5.17;;
9128;SDS011;4599;50.906;6.786;2024-02-21T01:11:15;12.30;;;5.50;;
9128;SDS011;4599;50.906;6.786;2024-02-21T01:15:17;13.80;;;4.87;;
9128;SDS011;4599;50.906;6.786;2024-02-21T01:19:19;13.57;;;4.67;;
9128;SDS011;4599;50.906;6.786;2024-02-21T01:23:22;12.37;;;5.43;;
9128;SDS011;4599;50.906;6.786;2024-02-21T01:27:24;15.33;;;4.97;;
9128;SDS011;4599;50.906;6.786;2024-02-21T01:31:25;11.93;;;4.93;;
9128;SDS011;4599;50.906;6.786;2024-02-21T01:35:27;11.43;;;4.67;;
9128;SDS011;4599;50.906;6.786;2024-02-21T01:39:30;13.57;;;4.90;;
9128;SDS011;4599;50.906;6.786;2024-02-21T01:43:32;17.40;;;5.07;;
9128;SDS011;4599;50.906;6.786;2024-02-21T01:47:34;14.03;;;5.07;;
9128;SDS011;4599;50.906;6.786;2024-02-21T01:51:36;11.27;;;4.40;;
9128;SDS011;4599;50.906;6.786;2024-02-21T01:55:39;16.53;;;5.10;;
9128;SDS011;4599;50.906;6.786;2024-02-21T01:59:44;16.97;;;5.33;;
9128;SDS011;4599;50.906;6.786;2024-02-21T02:03:47;20.37;;;5.40;;
9128;SDS011;4599;50.906;6.786;2024-02-21T02:07:48;12.80;;;5.30;;
9128;SDS011;4599;50.906;6.786;2024-02-21T02:11:52;13.53;;;4.67;;
9128;SDS011;4599;50.906;6.786;2024-02-21T02:15:54;14.30;;;4.30;;
9128;SDS011;4599;50.906;6.786;2024-02-21T02:19:56;12.10;;;4.30;;
9128;SDS011;4599;50.906;6.786;2024-02-21T02:24:00;14.33;;;5.33;;
9128;SDS011;4599;50.906;6.786;2024-02-21T02:28:02;8.87;;;4.10;;
9128;SDS011;4599;50.906;6.786;2024-02-21T02:32:04;10.93;;;4.67;;
9128;SDS011;4599;50.906;6.786;2024-02-21T02:36:07;14.63;;;5.10;;
9128;SDS011;4599;50.906;6.786;2024-02-21T02:40:10;14.83;;;4.87;;
9128;SDS011;4599;50.906;6.786;2024-02-21T02:44:12;11.53;;;4.27;;
9128;SDS011;4599;50.906;6.786;2024-02-21T02:48:14;10.67;;;4.20;;
9128;SDS011;4599;50.906;6.786;2024-02-21T02:52:16;12.20;;;4.63;;
9128;SDS011;4599;50.906;6.786;2024-02-21T02:56:20;10.50;;;3.93;;
9128;SDS011;4599;50.906;6.786;2024-02-21T03:00:21;9.20;;;4.30;;
9128;SDS011;4599;50.906;6.786;2024-02-21T03:04:23;10.20;;;4.70;;
9128;SDS011;4599;50.906;6.786;2024-02-21T03:08:25;11.30;;;4.30;;
9128;SDS011;4599;50.906;6.786;2024-02-21T03:12:28;12.40;;;4.70;;
9128;SDS011;4599;50.906;6.786;2024-02-21T03:16:30;12.47;;;4.53;;
9128;SDS011;4599;50.906;6.786;2024-02-21T03:20:33;10.80;;;4.27;;
9128;SDS011;4599;50.906;6.786;2024-02-21T03:24:34;12.63;;;3.83;;
9128;SDS011;4599;50.906;6.786;2024-02-21T03:28:39;11.67;;;3.77;;
9128;SDS011;4599;50.906;6.786;2024-02-21T03:32:41;11.10;;;3.83;;
9128;SDS011;4599;50.906;6.786;2024-02-21T03:36:42;11.37;;;4.50;;
9128;SDS011;4599;50.906;6.786;2024-02-21T03:40:44;11.23;;;3.80;;
9128;SDS011;4599;50.906;6.786;2024-02-21T03:44:47;10.47;;;4.00;;
9128;SDS011;4599;50.906;6.786;2024-02-21T03:48:49;11.77;;;4.40;;
9128;SDS011;4599;50.906;6.786;2024-02-21T03:52:51;10.73;;;3.90;;
9128;SDS011;4599;50.906;6.786;2024-02-21T03:56:52;9.77;;;3.80;;
9128;SDS011;4599;50.906;6.786;2024-02-21T04:00:56;11.30;;;3.97;;
9128;SDS011;4599;50.906;6.786;2024-02-21T04:04:58;10.03;;;4.17;;
9128;SDS011;4599;50.906;6.786;2024-02-21T04:09:01;10.93;;;4.13;;
9128;SDS011;4599;50.906;6.786;2024-02-21T04:13:03;8.40;;;3.70;;
9128;SDS011;4599;50.906;6.786;2024-02-21T04:17:07;11.03;;;3.47;;
9128;SDS011;4599;50.906;6.786;2024-02-21T04:21:09;8.27;;;3.77;;
9128;SDS011;4599;50.906;6.786;2024-02-21T04:25:14;10.27;;;3.80;;
9128;SDS011;4599;50.906;6.786;2024-02-21T04:29:16;10.40;;;3.80;;
9128;SDS011;4599;50.906;6.786;2024-02-21T04:33:19;10.80;;;3.87;;
9128;SDS011;4599;50.906;6.786;2024-02-21T04:37:21;13.40;;;4.47;;
9128;SDS011;4599;50.906;6.786;2024-02-21T04:41:23;8.80;;;3.77;;
9128;SDS011;4599;50.906;6.786;2024-02-21T04:45:26;11.70;;;3.73;;
9128;SDS011;4599;50.906;6.786;2024-02-21T04:49:29;10.83;;;3.47;;
9128;SDS011;4599;50.906;6.786;2024-02-21T04:53:31;11.50;;;3.37;;
9128;SDS011;4599;50.906;6.786;2024-02-21T04:57:33;10.00;;;4.00;;
9128;SDS011;4599;50.906;6.786;2024-02-21T05:01:35;9.97;;;3.70;;
9128;SDS011;4599;50.906;6.786;2024-02-21T05:05:38;11.10;;;3.87;;
9128;SDS011;4599;50.906;6.786;2024-02-21T05:09:41;12.70;;;4.43;;
9128;SDS011;4599;50.906;6.786;2024-02-21T05:13:43;9.27;;;3.73;;
9128;SDS011;4599;50.906;6.786;2024-02-21T05:17:45;10.10;;;3.80;;
9128;SDS011;4599;50.906;6.786;2024-02-21T05:21:48;12.50;;;4.03;;
9128;SDS011;4599;50.906;6.786;2024-02-21T05:25:50;11.60;;;3.90;;
9128;SDS011;4599;50.906;6.786;2024-02-21T05:29:53;11.13;;;4.10;;
9128;SDS011;4599;50.906;6.786;2024-02-21T05:33:54;11.70;;;3.70;;
9128;SDS011;4599;50.906;6.786;2024-02-21T05:37:57;7.63;;;3.30;;
9128;SDS011;4599;50.906;6.786;2024-02-21T05:41:59;11.97;;;3.80;;
9128;SDS011;4599;50.906;6.786;2024-02-21T05:46:01;8.53;;;3.50;;
9128;SDS011;4599;50.906;6.786;2024-02-21T05:50:03;8.10;;;3.40;;
9128;SDS011;4599;50.906;6.786;2024-02-21T05:54:06;7.97;;;3.23;;
9128;SDS011;4599;50.906;6.786;2024-02-21T05:58:08;8.40;;;3.60;;
9128;SDS011;4599;50.906;6.786;2024-02-21T06:02:10;10.03;;;3.70;;
9128;SDS011;4599;50.906;6.786;2024-02-21T06:06:11;10.87;;;3.60;;
9128;SDS011;4599;50.906;6.786;2024-02-21T06:10:15;10.97;;;4.10;;
9128;SDS011;4599;50.906;6.786;2024-02-21T06:14:19;10.83;;;3.80;;
9128;SDS011;4599;50.906;6.786;2024-02-21T06:18:29;7.87;;;3.60;;
9128;SDS011;4599;50.906;6.786;2024-02-21T06:22:31;9.80;;;3.40;;
9128;SDS011;4599;50.906;6.786;2024-02-21T06:26:34;9.17;;;3.40;;
9128;SDS011;4599;50.906;6.786;2024-02-21T06:30:36;8.77;;;3.03;;
9128;SDS011;4599;50.906;6.786;2024-02-21T06:34:37;8.53;;;3.03;;
9128;SDS011;4599;50.906;6.786;2024-02-21T06:38:39;8.97;;;3.77;;
9128;SDS011;4599;50.906;6.786;2024-02-21T06:42:43;9.37;;;3.50;;
9128;SDS011;4599;50.906;6.786;2024-02-21T06:46:44;8.60;;;3.63;;
9128;SDS011;4599;50.906;6.786;2024-02-21T06:50:46;11.03;;;3.80;;
9128;SDS011;4599;50.906;6.786;2024-02-21T06:54:49;9.80;;;3.67;;
9128;SDS011;4599;50.906;6.786;2024-02-21T06:58:52;10.87;;;3.60;;
9128;SDS011;4599;50.906;6.786;2024-02-21T07:02:54;8.97;;;3.20;;
9128;SDS011;4599;50.906;6.786;2024-02-21T07:06:56;7.20;;;3.37;;
9128;SDS011;4599;50.906;6.786;2024-02-21T07:10:58;11.77;;;3.63;;
9128;SDS011;4599;50.906;6.786;2024-02-21T07:15:01;11.13;;;3.47;;
9128;SDS011;4599;50.906;6.786;2024-02-21T07:19:07;11.80;;;4.03;;
9128;SDS011;4599;50.906;6.786;2024-02-21T07:23:09;7.97;;;3.73;;
9128;SDS011;4599;50.906;6.786;2024-02-21T07:27:13;10.80;;;3.83;;
9128;SDS011;4599;50.906;6.786;2024-02-21T07:31:16;13.13;;;6.03;;
9128;SDS011;4599;50.906;6.786;2024-02-21T07:35:18;8.97;;;3.27;;
9128;SDS011;4599;50.906;6.786;2024-02-21T07:39:20;7.87;;;3.17;;
9128;SDS011;4599;50.906;6.786;2024-02-21T07:43:22;11.03;;;3.57;;
9128;SDS011;4599;50.906;6.786;2024-02-21T07:47:25;8.90;;;3.90;;
9128;SDS011;4599;50.906;6.786;2024-02-21T07:51:27;7.80;;;3.33;;
9128;SDS011;4599;50.906;6.786;2024-02-21T07:55:29;9.77;;;3.57;;
9128;SDS011;4599;50.906;6.786;2024-02-21T07:59:30;10.80;;;3.70;;
9128;SDS011;4599;50.906;6.786;2024-02-21T08:03:33;8.23;;;3.40;;
9128;SDS011;4599;50.906;6.786;2024-02-21T08:07:35;9.90;;;3.57;;
9128;SDS011;4599;50.906;6.786;2024-02-21T08:11:37;8.50;;;3.30;;
9128;SDS011;4599;50.906;6.786;2024-02-21T08:15:39;8.40;;;3.50;;
9128;SDS011;4599;50.906;6.786;2024-02-21T08:19:43;9.93;;;3.20;;
9128;SDS011;4599;50.906;6.786;2024-02-21T08:23:45;10.87;;;3.53;;
9128;SDS011;4599;50.906;6.786;2024-02-21T08:27:46;11.93;;;3.67;;
9128;SDS011;4599;50.906;6.786;2024-02-21T08:31:48;12.10;;;3.50;;
9128;SDS011;4599;50.906;6.786;2024-02-21T08:35:51;10.07;;;3.30;;
9128;SDS011;4599;50.906;6.786;2024-02-21T08:39:53;10.67;;;3.83;;
9128;SDS011;4599;50.906;6.786;2024-02-21T08:43:55;7.27;;;3.20;;
9128;SDS011;4599;50.906;6.786;2024-02-21T08:47:56;14.43;;;3.63;;
9128;SDS011;4599;50.906;6.786;2024-02-21T08:51:59;7.07;;;3.50;;
9128;SDS011;4599;50.906;6.786;2024-02-21T08:56:02;7.70;;;3.27;;
9128;SDS011;4599;50.906;6.786;2024-02-21T09:00:05;8.73;;;3.27;;
9128;SDS011;4599;50.906;6.786;2024-02-21T09:04:08;9.07;;;3.40;;
9128;SDS011;4599;50.906;6.786;2024-02-21T09:08:11;8.00;;;3.00;;
9128;SDS011;4599;50.906;6.786;2024-02-21T09:12:16;5.87;;;2.63;;
9128;SDS011;4599;50.906;6.786;2024-02-21T09:16:17;8.37;;;2.47;;
9128;SDS011;4599;50.906;6.786;2024-02-21T09:20:19;8.33;;;2.80;;
9128;SDS011;4599;50.906;6.786;2024-02-21T09:24:23;6.47;;;2.73;;
9128;SDS011;4599;50.906;6.786;2024-02-21T09:28:24;6.77;;;2.60;;
9128;SDS011;4599;50.906;6.786;2024-02-21T09:32:26;9.27;;;2.80;;
9128;SDS011;4599;50.906;6.786;2024-02-21T09:36:28;7.57;;;2.83;;
9128;SDS011;4599;50.906;6.786;2024-02-21T09:40:31;6.43;;;3.00;;
9128;SDS011;4599;50.906;6.786;2024-02-21T09:44:36;6.43;;;2.77;;
9128;SDS011;4599;50.906;6.786;2024-02-21T09:48:42;7.77;;;3.73;;
9128;SDS011;4599;50.906;6.786;2024-02-21T09:52:56;8.43;;;2.90;;
9128;SDS011;4599;50.906;6.786;2024-02-21T09:57:01;7.03;;;2.97;;
9128;SDS011;4599;50.906;6.786;2024-02-21T10:01:04;10.53;;;3.10;;
9128;SDS011;4599;50.906;6.786;2024-02-21T10:05:17;10.70;;;3.47;;
9128;SDS011;4599;50.906;6.786;2024-02-21T10:09:22;9.87;;;3.00;;
9128;SDS011;4599;50.906;6.786;2024-02-21T10:13:26;8.10;;;2.70;;
9128;SDS011;4599;50.906;6.786;2024-02-21T10:17:29;6.50;;;2.47;;
9128;SDS011;4599;50.906;6.786;2024-02-21T10:21:32;7.27;;;3.00;;
9128;SDS011;4599;50.906;6.786;2024-02-21T10:25:34;7.33;;;2.67;;
9128;SDS011;4599;50.906;6.786;2024-02-21T10:29:38;9.40;;;2.87;;
9128;SDS011;4599;50.906;6.786;2024-02-21T10:33:40;8.40;;;3.00;;
9128;SDS011;4599;50.906;6.786;2024-02-21T10:37:42;9.23;;;2.80;;
9128;SDS011;4599;50.906;6.786;2024-02-21T10:41:44;10.70;;;3.20;;
9128;SDS011;4599;50.906;6.786;2024-02-21T10:45:47;7.67;;;2.70;;
9128;SDS011;4599;50.906;6.786;2024-02-21T10:49:56;8.03;;;2.40;;
9128;SDS011;4599;50.906;6.786;2024-02-21T10:54:07;7.47;;;2.63;;
9128;SDS011;4599;50.906;6.786;2024-02-21T10:58:19;6.20;;;2.50;;
9128;SDS011;4599;50.906;6.786;2024-02-21T11:02:22;6.33;;;2.00;;
9128;SDS011;4599;50.906;6.786;2024-02-21T11:06:24;7.47;;;2.80;;
9128;SDS011;4599;50.906;6.786;2024-02-21T11:10:27;5.07;;;2.20;;
9128;SDS011;4599;50.906;6.786;2024-02-21T11:14:30;5.97;;;2.50;;
9128;SDS011;4599;50.906;6.786;2024-02-21T11:18:34;9.77;;;2.57;;
9128;SDS011;4599;50.906;6.786;2024-02-21T11:22:40;9.20;;;2.30;;
9128;SDS011;4599;50.906;6.786;2024-02-21T11:26:42;6.40;;;2.13;;
9128;SDS011;4599;50.906;6.786;2024-02-21T11:30:44;6.37;;;2.50;;
9128;SDS011;4599;50.906;6.786;2024-02-21T11:34:56;10.80;;;2.57;;
9128;SDS011;4599;50.906;6.786;2024-02-21T11:39:03;3.97;;;1.93;;
9128;SDS011;4599;50.906;6.786;2024-02-21T11:43:05;5.60;;;2.27;;
9128;SDS011;4599;50.906;6.786;2024-02-21T11:47:08;6.13;;;2.10;;
9128;SDS011;4599;50.906;6.786;2024-02-21T11:51:12;8.50;;;2.67;;
9128;SDS011;4599;50.906;6.786;2024-02-21T11:55:22;9.13;;;2.43;;
9128;SDS011;4599;50.906;6.786;2024-02-21T11:59:26;7.47;;;3.60;;
9128;SDS011;4599;50.906;6.786;2024-02-21T12:03:28;8.53;;;3.60;;
9128;SDS011;4599;50.906;6.786;2024-02-21T12:07:32;8.23;;;2.57;;
9128;SDS011;4599;50.906;6.786;2024-02-21T12:11:34;8.00;;;3.17;;
9128;SDS011;4599;50.906;6.786;2024-02-21T12:15:37;8.33;;;4.03;;
9128;SDS011;4599;50.906;6.786;2024-02-21T12:19:40;15.93;;;6.40;;
9128;SDS011;4599;50.906;6.786;2024-02-21T12:23:43;7.93;;;3.23;;
9128;SDS011;4599;50.906;6.786;2024-02-21T12:27:46;7.03;;;2.50;;
9128;SDS011;4599;50.906;6.786;2024-02-21T12:31:47;7.43;;;3.20;;
9128;SDS011;4599;50.906;6.786;2024-02-21T12:35:50;11.10;;;3.10;;
9128;SDS011;4599;50.906;6.786;2024-02-21T12:39:53;5.60;;;3.53;;
9128;SDS011;4599;50.906;6.786;2024-02-21T12:43:55;10.20;;;2.70;;
9128;SDS011;4599;50.906;6.786;2024-02-21T12:47:57;7.63;;;2.67;;
9128;SDS011;4599;50.906;6.786;2024-02-21T12:51:59;5.93;;;3.00;;
9128;SDS011;4599;50.906;6.786;2024-02-21T12:56:02;5.70;;;2.30;;
9128;SDS011;4599;50.906;6.786;2024-02-21T13:00:04;8.20;;;3.50;;
9128;SDS011;4599;50.906;6.786;2024-02-21T13:04:07;3.20;;;1.70;;
9128;SDS011;4599;50.906;6.786;2024-02-21T13:08:09;11.70;;;3.70;;
9128;SDS011;4599;50.906;6.786;2024-02-21T13:12:12;6.33;;;2.20;;
9128;SDS011;4599;50.906;6.786;2024-02-21T13:16:14;7.70;;;2.50;;
9128;SDS011;4599;50.906;6.786;2024-02-21T13:20:15;8.30;;;2.17;;
9128;SDS011;4599;50.906;6.786;2024-02-21T13:24:17;6.10;;;3.13;;
9128;SDS011;4599;50.906;6.786;2024-02-21T13:28:20;6.00;;;2.20;;
9128;SDS011;4599;50.906;6.786;2024-02-21T13:32:22;6.07;;;2.17;;
9128;SDS011;4599;50.906;6.786;2024-02-21T13:36:24;6.10;;;2.40;;
9128;SDS011;4599;50.906;6.786;2024-02-21T13:40:26;12.97;;;4.07;;
9128;SDS011;4599;50.906;6.786;2024-02-21T13:44:29;6.87;;;2.40;;
9128;SDS011;4599;50.906;6.786;2024-02-21T13:48:31;5.60;;;2.57;;
9128;SDS011;4599;50.906;6.786;2024-02-21T13:52:33;6.87;;;2.30;;
9128;SDS011;4599;50.906;6.786;2024-02-21T13:56:34;8.03;;;2.20;;
9128;SDS011;4599;50.906;6.786;2024-02-21T14:00:37;7.80;;;2.70;;
9128;SDS011;4599;50.906;6.786;2024-02-21T14:04:39;3.63;;;1.87;;
9128;SDS011;4599;50.906;6.786;2024-02-21T14:08:41;5.33;;;2.20;;
9128;SDS011;4599;50.906;6.786;2024-02-21T14:12:43;7.97;;;2.10;;
9128;SDS011;4599;50.906;6.786;2024-02-21T14:16:46;4.73;;;2.17;;
9128;SDS011;4599;50.906;6.786;2024-02-21T14:20:47;4.67;;;2.00;;
9128;SDS011;4599;50.906;6.786;2024-02-21T14:24:49;4.87;;;1.93;;
9128;SDS011;4599;50.906;6.786;2024-02-21T14:28:51;4.60;;;2.03;;
9128;SDS011;4599;50.906;6.786;2024-02-21T14:32:54;5.73;;;2.00;;
9128;SDS011;4599;50.906;6.786;2024-02-21T14:36:56;4.30;;;2.30;;
9128;SDS011;4599;50.906;6.786;2024-02-21T14:40:59;7.33;;;2.20;;
9128;SDS011;4599;50.906;6.786;2024-02-21T14:45:02;8.10;;;2.10;;
9128;SDS011;4599;50.906;6.786;2024-02-21T14:49:05;5.47;;;2.07;;
9128;SDS011;4599;50.906;6.786;2024-02-21T14:53:07;3.47;;;2.00;;
9128;SDS011;4599;50.906;6.786;2024-02-21T14:57:09;6.27;;;2.50;;
9128;SDS011;4599;50.906;6.786;2024-02-21T15:01:11;6.73;;;1.90;;
9128;SDS011;4599;50.906;6.786;2024-02-21T15:05:14;4.13;;;1.67;;
9128;SDS011;4599;50.906;6.786;2024-02-21T15:09:16;4.97;;;2.03;;
9128;SDS011;4599;50.906;6.786;2024-02-21T15:13:18;5.53;;;1.90;;
9128;SDS011;4599;50.906;6.786;2024-02-21T15:17:19;4.03;;;1.80;;
9128;SDS011;4599;50.906;6.786;2024-02-21T15:21:22;5.77;;;1.93;;
9128;SDS011;4599;50.906;6.786;2024-02-21T15:25:24;3.97;;;1.87;;
9128;SDS011;4599;50.906;6.786;2024-02-21T15:29:26;4.03;;;1.87;;
9128;SDS011;4599;50.906;6.786;2024-02-21T15:33:28;6.83;;;1.93;;
9128;SDS011;4599;50.906;6.786;2024-02-21T15:37:31;6.10;;;2.20;;
9128;SDS011;4599;50.906;6.786;2024-02-21T15:41:33;4.60;;;2.03;;
9128;SDS011;4599;50.906;6.786;2024-02-21T15:45:35;4.90;;;1.57;;
9128;SDS011;4599;50.906;6.786;2024-02-21T15:49:36;6.40;;;2.23;;
9128;SDS011;4599;50.906;6.786;2024-02-21T15:53:39;5.13;;;1.80;;
9128;SDS011;4599;50.906;6.786;2024-02-21T15:57:41;8.37;;;2.30;;
9128;SDS011;4599;50.906;6.786;2024-02-21T16:01:43;4.77;;;2.00;;
9128;SDS011;4599;50.906;6.786;2024-02-21T16:05:45;5.43;;;2.00;;
9128;SDS011;4599;50.906;6.786;2024-02-21T16:09:48;5.90;;;1.83;;
9128;SDS011;4599;50.906;6.786;2024-02-21T16:13:50;4.77;;;2.07;;
9128;SDS011;4599;50.906;6.786;2024-02-21T16:17:52;8.17;;;2.30;;
9128;SDS011;4599;50.906;6.786;2024-02-21T16:21:54;7.43;;;2.13;;
9128;SDS011;4599;50.906;6.786;2024-02-21T16:25:57;7.63;;;2.47;;
9128;SDS011;4599;50.906;6.786;2024-02-21T16:29:58;4.10;;;2.00;;
9128;SDS011;4599;50.906;6.786;2024-02-21T16:34:00;4.40;;;1.80;;
9128;SDS011;4599;50.906;6.786;2024-02-21T16:38:02;4.70;;;1.70;;
9128;SDS011;4599;50.906;6.786;2024-02-21T16:42:05;4.43;;;1.70;;
9128;SDS011;4599;50.906;6.786;2024-02-21T16:46:07;5.43;;;2.10;;
9128;SDS011;4599;50.906;6.786;2024-02-21T16:50:09;5.87;;;1.90;;
9128;SDS011;4599;50.906;6.786;2024-02-21T16:54:11;5.53;;;1.87;;
9128;SDS011;4599;50.906;6.786;2024-02-21T16:58:14;4.00;;;1.90;;
9128;SDS011;4599;50.906;6.786;2024-02-21T17:02:15;6.43;;;1.90;;
9128;SDS011;4599;50.906;6.786;2024-02-21T17:06:18;5.47;;;1.73;;
9128;SDS011;4599;50.906;6.786;2024-02-21T17:10:20;7.50;;;1.97;;
9128;SDS011;4599;50.906;6.786;2024-02-21T17:14:23;6.63;;;2.20;;
9128;SDS011;4599;50.906;6.786;2024-02-21T17:18:25;4.07;;;1.90;;
9128;SDS011;4599;50.906;6.786;2024-02-21T17:22:27;7.07;;;2.07;;
9128;SDS011;4599;50.906;6.786;2024-02-21T17:26:30;8.03;;;2.20;;
9128;SDS011;4599;50.906;6.786;2024-02-21T17:30:34;6.43;;;2.13;;
9128;SDS011;4599;50.906;6.786;2024-02-21T17:34:35;6.23;;;1.97;;
9128;SDS011;4599;50.906;6.786;2024-02-21T17:38:37;8.53;;;2.53;;
9128;SDS011;4599;50.906;6.786;2024-02-21T17:42:39;8.90;;;2.20;;
9128;SDS011;4599;50.906;6.786;2024-02-21T17:46:42;7.47;;;2.80;;
9128;SDS011;4599;50.906;6.786;2024-02-21T17:50:44;7.27;;;2.53;;
9128;SDS011;4599;50.906;6.786;2024-02-21T17:54:46;11.37;;;2.97;;
9128;SDS011;4599;50.906;6.786;2024-02-21T17:58:48;8.40;;;2.73;;
9128;SDS011;4599;50.906;6.786;2024-02-21T18:02:51;6.00;;;2.83;;
9128;SDS011;4599;50.906;6.786;2024-02-21T18:06:53;7.30;;;2.30;;
9128;SDS011;4599;50.906;6.786;2024-02-21T18:10:55;5.97;;;2.60;;
9128;SDS011;4599;50.906;6.786;2024-02-21T18:14:57;13.07;;;4.80;;
9128;SDS011;4599;50.906;6.786;2024-02-21T18:19:02;8.40;;;2.40;;
9128;SDS011;4599;50.906;6.786;2024-02-21T18:23:04;5.03;;;2.00;;
9128;SDS011;4599;50.906;6.786;2024-02-21T18:27:06;6.27;;;2.57;;
9128;SDS011;4599;50.906;6.786;2024-02-21T18:31:08;8.23;;;2.70;;
9128;SDS011;4599;50.906;6.786;2024-02-21T18:35:11;7.17;;;2.60;;
9128;SDS011;4599;50.906;6.786;2024-02-21T18:39:13;7.47;;;2.50;;
9128;SDS011;4599;50.906;6.786;2024-02-21T18:43:15;8.40;;;3.23;;
9128;SDS011;4599;50.906;6.786;2024-02-21T18:47:16;6.57;;;2.30;;
9128;SDS011;4599;50.906;6.786;2024-02-21T18:51:19;6.47;;;2.13;;
9128;SDS011;4599;50.906;6.786;2024-02-21T18:55:21;7.57;;;2.63;;
9128;SDS011;4599;50.906;6.786;2024-02-21T18:59:23;5.67;;;2.50;;
9128;SDS011;4599;50.906;6.786;2024-02-21T19:03:25;8.13;;;2.43;;
9128;SDS011;4599;50.906;6.786;2024-02-21T19:07:28;7.17;;;2.50;;
9128;SDS011;4599;50.906;6.786;2024-02-21T19:11:30;4.27;;;2.50;;
9128;SDS011;4599;50.906;6.786;2024-02-21T19:15:32;6.23;;;2.77;;
9128;SDS011;4599;50.906;6.786;2024-02-21T19:19:33;9.47;;;2.70;;
9128;SDS011;4599;50.906;6.786;2024-02-21T19:23:36;8.17;;;2.83;;
9128;SDS011;4599;50.906;6.786;2024-02-21T19:27:39;7.27;;;2.60;;
9128;SDS011;4599;50.906;6.786;2024-02-21T19:31:40;8.97;;;3.00;;
9128;SDS011;4599;50.906;6.786;2024-02-21T19:35:42;5.47;;;2.70;;
9128;SDS011;4599;50.906;6.786;2024-02-21T19:39:45;5.27;;;2.80;;
9128;SDS011;4599;50.906;6.786;2024-02-21T19:43:47;6.63;;;3.20;;
9128;SDS011;4599;50.906;6.786;2024-02-21T19:47:49;9.60;;;3.00;;
9128;SDS011;4599;50.906;6.786;2024-02-21T19:51:50;7.00;;;3.23;;
9128;SDS011;4599;50.906;6.786;2024-02-21T19:55:53;5.90;;;3.00;;
9128;SDS011;4599;50.906;6.786;2024-02-21T19:59:55;5.80;;;2.60;;
9128;SDS011;4599;50.906;6.786;2024-02-21T20:03:57;6.13;;;2.70;;
9128;SDS011;4599;50.906;6.786;2024-02-21T20:07:59;5.07;;;2.90;;
9128;SDS011;4599;50.906;6.786;2024-02-21T20:12:03;8.30;;;3.30;;
9128;SDS011;4599;50.906;6.786;2024-02-21T20:16:06;3.40;;;2.40;;
9128;SDS011;4599;50.906;6.786;2024-02-21T20:20:08;5.97;;;2.33;;
9128;SDS011;4599;50.906;6.786;2024-02-21T20:24:11;3.40;;;2.33;;
9128;SDS011;4599;50.906;6.786;2024-02-21T20:28:29;3.77;;;2.40;;
9128;SDS011;4599;50.906;6.786;2024-02-21T20:32:31;2.97;;;2.03;;
9128;SDS011;4599;50.906;6.786;2024-02-21T20:36:32;2.60;;;2.40;;
9128;SDS011;4599;50.906;6.786;2024-02-21T20:40:35;2.73;;;2.13;;
9128;SDS011;4599;50.906;6.786;2024-02-21T20:44:38;2.73;;;2.33;;
9128;SDS011;4599;50.906;6.786;2024-02-21T20:48:39;3.57;;;2.13;;
9128;SDS011;4599;50.906;6.786;2024-02-21T20:52:41;3.37;;;2.50;;
9128;SDS011;4599;50.906;6.786;2024-02-21T20:56:43;3.13;;;2.00;;
9128;SDS011;4599;50.906;6.786;2024-02-21T21:00:46;3.50;;;2.20;;
9128;SDS011;4599;50.906;6.786;2024-02-21T21:04:48;3.33;;;2.07;;
9128;SDS011;4599;50.906;6.786;2024-02-21T21:08:50;3.33;;;1.93;;
9128;SDS011;4599;50.906;6.786;2024-02-21T21:12:52;4.20;;;2.07;;
9128;SDS011;4599;50.906;6.786;2024-02-21T21:16:55;2.27;;;1.80;;
9128;SDS011;4599;50.906;6.786;2024-02-21T21:20:57;3.20;;;2.00;;
9128;SDS011;4599;50.906;6.786;2024-02-21T21:24:58;2.60;;;1.63;;
9128;SDS011;4599;50.906;6.786;2024-02-21T21:29:00;2.53;;;1.70;;
9128;SDS011;4599;50.906;6.786;2024-02-21T21:33:04;4.60;;;1.80;;
9128;SDS011;4599;50.906;6.786;2024-02-21T21:37:06;2.20;;;1.57;;
9128;SDS011;4599;50.906;6.786;2024-02-21T21:41:07;1.53;;;1.40;;
9128;SDS011;4599;50.906;6.786;2024-02-21T21:45:10;1.77;;;1.53;;
9128;SDS011;4599;50.906;6.786;2024-02-21T21:49:13;2.53;;;1.53;;
9128;SDS011;4599;50.906;6.786;2024-02-21T21:53:15;3.10;;;1.60;;
9128;SDS011;4599;50.906;6.786;2024-02-21T21:57:17;3.27;;;1.30;;
9128;SDS011;4599;50.906;6.786;2024-02-21T22:01:19;2.40;;;1.23;;
9128;SDS011;4599;50.906;6.786;2024-02-21T22:05:24;1.70;;;1.20;;
9128;SDS011;4599;50.906;6.786;2024-02-21T22:09:26;1.50;;;1.10;;
9128;SDS011;4599;50.906;6.786;2024-02-21T22:13:28;1.50;;;1.23;;
9128;SDS011;4599;50.906;6.786;2024-02-21T22:17:29;1.60;;;1.20;;
9128;SDS011;4599;50.906;6.786;2024-02-21T22:21:33;2.23;;;1.30;;
9128;SDS011;4599;50.906;6.786;2024-02-21T22:25:34;1.20;;;1.10;;
9128;SDS011;4599;50.906;6.786;2024-02-21T22:29:36;1.70;;;1.10;;
9128;SDS011;4599;50.906;6.786;2024-02-21T22:33:41;0.90;;;0.90;;
9128;SDS011;4599;50.906;6.786;2024-02-21T22:37:44;1.40;;;0.83;;
9128;SDS011;4599;50.906;6.786;2024-02-21T22:41:46;1.13;;;0.90;;
9128;SDS011;4599;50.906;6.786;2024-02-21T22:45:48;0.87;;;0.87;;
9128;SDS011;4599;50.906;6.786;2024-02-21T22:49:50;1.10;;;1.00;;
9128;SDS011;4599;50.906;6.786;2024-02-21T22:53:53;0.90;;;0.90;;
9128;SDS011;4599;50.906;6.786;2024-02-21T22:57:55;0.70;;;0.70;;
9128;SDS011;4599;50.906;6.786;2024-02-21T23:01:56;1.10;;;1.00;;
9128;SDS011;4599;50.906;6.786;2024-02-21T23:05:58;0.70;;;0.67;;
9128;SDS011;4599;50.906;6.786;2024-02-21T23:10:01;1.30;;;0.90;;
9128;SDS011;4599;50.906;6.786;2024-02-21T23:14:03;1.83;;;0.93;;
9128;SDS011;4599;50.906;6.786;2024-02-21T23:18:05;0.67;;;0.60;;
9128;SDS011;4599;50.906;6.786;2024-02-21T23:22:07;0.70;;;0.70;;
9128;SDS011;4599;50.906;6.786;2024-02-21T23:26:10;0.60;;;0.60;;
9128;SDS011;4599;50.906;6.786;2024-02-21T23:30:12;0.80;;;0.80;;
9128;SDS011;4599;50.906;6.786;2024-02-21T23:34:14;0.87;;;0.70;;
9128;SDS011;4599;50.906;6.786;2024-02-21T23:38:16;1.17;;;0.60;;
9128;SDS011;4599;50.906;6.786;2024-02-21T23:42:19;0.60;;;0.40;;
9128;SDS011;4599;50.906;6.786;2024-02-21T23:46:20;0.67;;;0.40;;
9128;SDS011;4599;50.906;6.786;2024-02-21T23:50:22;0.50;;;0.50;;
9128;SDS011;4599;50.906;6.786;2024-02-21T23:54:24;0.50;;;0.50;;
9128;SDS011;4599;50.906;6.786;2024-02-21T23:58:27;0.93;;;0.40;;
